createdAt,value
2023-05-20T00:00:00.542Z,16.80
2023-05-20T00:03:28.226Z,16.79
2023-05-20T00:06:56.310Z,16.77
2023-05-20T00:10:24.562Z,16.73
2023-05-20T00:13:52.236Z,16.69
2023-05-20T00:17:19.985Z,16.66
2023-05-20T00:20:47.833Z,16.60
2023-05-20T00:24:20.651Z,16.55
2023-05-20T00:27:48.263Z,16.50
2023-05-20T00:31:16.667Z,16.46
2023-05-20T00:34:44.324Z,16.42
2023-05-20T00:38:13.561Z,16.42
2023-05-20T00:41:41.185Z,16.38
2023-05-20T00:45:07.634Z,16.36
2023-05-20T00:48:34.121Z,16.35
2023-05-20T00:52:03.565Z,16.33
2023-05-20T00:55:14.225Z,16.31
2023-05-20T00:58:41.924Z,16.30
2023-05-20T01:02:09.629Z,16.31
2023-05-20T01:05:30.404Z,16.33
2023-05-20T01:08:52.748Z,16.36
2023-05-20T01:12:20.388Z,16.42
2023-05-20T01:15:51.445Z,16.46
2023-05-20T01:19:19.147Z,16.49
2023-05-20T01:22:47.030Z,16.50
2023-05-20T01:26:14.666Z,16.51
2023-05-20T01:29:32.380Z,16.50
2023-05-20T01:32:53.412Z,16.48
2023-05-20T01:36:14.100Z,16.46
2023-05-20T01:39:41.837Z,16.43
2023-05-20T01:43:09.435Z,16.43
2023-05-20T01:46:37.149Z,16.42
2023-05-20T01:50:04.812Z,16.41
2023-05-20T01:53:25.632Z,16.42
2023-05-20T01:56:53.265Z,16.43
2023-05-20T02:00:20.956Z,16.43
2023-05-20T02:03:48.620Z,16.45
2023-05-20T02:07:16.345Z,16.47
2023-05-20T02:10:43.962Z,16.48
2023-05-20T02:14:11.533Z,16.49
2023-05-20T02:17:39.184Z,16.49
2023-05-20T02:21:06.817Z,16.48
2023-05-20T02:24:05.420Z,16.47
2023-05-20T02:27:24.294Z,16.47
2023-05-20T02:30:52.038Z,16.45
2023-05-20T02:34:19.480Z,16.43
2023-05-20T02:37:40.273Z,16.42
2023-05-20T02:41:05.794Z,16.40
2023-05-20T02:44:31.457Z,16.38
2023-05-20T02:47:58.152Z,16.37
2023-05-20T02:51:19.461Z,16.37
2023-05-20T02:54:40.968Z,16.36
2023-05-20T02:58:08.633Z,16.37
2023-05-20T03:01:30.059Z,16.37
2023-05-20T03:04:57.724Z,16.37
2023-05-20T03:08:25.308Z,16.37
2023-05-20T03:11:52.900Z,16.35
2023-05-20T03:15:20.516Z,16.32
2023-05-20T03:18:48.188Z,16.32
2023-05-20T03:22:16.118Z,16.31
2023-05-20T03:25:36.806Z,16.31
2023-05-20T03:28:58.022Z,16.32
2023-05-20T03:32:24.512Z,16.34
2023-05-20T03:35:52.102Z,16.38
2023-05-20T03:39:04.935Z,16.41
2023-05-20T03:42:25.304Z,16.45
2023-05-20T03:45:52.971Z,16.48
2023-05-20T03:49:14.324Z,16.53
2023-05-20T03:52:41.915Z,16.59
2023-05-20T03:56:09.562Z,16.68
2023-05-20T03:59:37.173Z,16.78
2023-05-20T04:03:04.834Z,16.90
2023-05-20T04:06:23.460Z,17.03
2023-05-20T04:09:51.141Z,17.17
2023-05-20T04:13:18.832Z,17.33
2023-05-20T04:16:46.648Z,17.48
2023-05-20T04:20:14.341Z,17.64
2023-05-20T04:23:42.046Z,17.79
2023-05-20T04:27:09.674Z,17.93
2023-05-20T04:30:37.632Z,18.08
2023-05-20T04:34:05.310Z,18.28
2023-05-20T04:37:32.892Z,18.66
2023-05-20T04:41:00.488Z,19.51
2023-05-20T04:44:28.075Z,20.64
2023-05-20T04:47:55.905Z,21.54
2023-05-20T04:51:17.443Z,21.83
2023-05-20T04:54:45.095Z,21.60
2023-05-20T04:58:12.803Z,21.27
2023-05-20T05:01:44.930Z,20.99
2023-05-20T05:05:12.591Z,20.80
2023-05-20T05:08:36.488Z,20.70
2023-05-20T05:12:04.158Z,20.63
2023-05-20T05:15:30.908Z,20.65
2023-05-20T05:18:58.546Z,20.76
2023-05-20T05:22:26.150Z,20.86
2023-05-20T05:25:53.824Z,20.96
2023-05-20T05:29:21.440Z,21.13
2023-05-20T05:32:49.614Z,21.38
2023-05-20T05:36:17.425Z,21.62
2023-05-20T05:39:48.542Z,21.79
2023-05-20T05:43:16.196Z,21.88
2023-05-20T05:46:43.966Z,21.98
2023-05-20T05:50:10.691Z,22.09
2023-05-20T05:53:38.386Z,22.22
2023-05-20T05:56:58.923Z,22.34
2023-05-20T06:00:26.589Z,22.41
2023-05-20T06:03:46.980Z,22.48
2023-05-20T06:07:14.841Z,22.51
2023-05-20T06:10:42.567Z,22.55
2023-05-20T06:14:10.212Z,22.65
2023-05-20T06:17:38.631Z,22.70
2023-05-20T06:21:06.350Z,22.68
2023-05-20T06:24:28.717Z,22.71
2023-05-20T06:27:56.376Z,22.73
2023-05-20T06:31:25.701Z,22.76
2023-05-20T06:34:52.505Z,22.77
2023-05-20T06:38:25.581Z,22.84
2023-05-20T06:41:51.941Z,22.92
2023-05-20T06:45:10.805Z,22.99
2023-05-20T06:48:28.537Z,23.09
2023-05-20T06:51:56.149Z,23.15
2023-05-20T06:55:23.894Z,23.21
2023-05-20T06:58:42.480Z,23.28
2023-05-20T07:02:01.169Z,23.34
2023-05-20T07:04:58.240Z,23.36
2023-05-20T07:08:18.860Z,23.42
2023-05-20T07:11:47.654Z,23.48
2023-05-20T07:15:03.609Z,23.54
2023-05-20T07:18:31.345Z,23.63
2023-05-20T07:21:42.400Z,23.70
2023-05-20T07:25:18.075Z,23.75
2023-05-20T07:28:35.904Z,23.79
2023-05-20T07:31:46.434Z,23.82
2023-05-20T07:34:37.096Z,23.84
2023-05-20T07:37:12.829Z,23.91
2023-05-20T07:39:40.724Z,23.97
2023-05-20T07:42:24.609Z,24.07
2023-05-20T07:45:27.576Z,24.18
2023-05-20T07:48:53.845Z,24.22
2023-05-20T07:52:21.523Z,24.30
2023-05-20T07:55:41.949Z,24.38
2023-05-20T07:58:50.533Z,24.43
2023-05-20T08:02:18.370Z,24.44
2023-05-20T08:05:46.207Z,24.49
2023-05-20T08:08:54.340Z,24.54
2023-05-20T08:11:35.635Z,24.61
2023-05-20T08:14:22.316Z,24.67
2023-05-20T08:17:14.701Z,24.66
2023-05-20T08:20:11.165Z,24.69
2023-05-20T08:22:54.856Z,24.72
2023-05-20T08:26:04.494Z,24.79
2023-05-20T08:29:13.186Z,24.84
2023-05-20T08:32:39.898Z,24.91
2023-05-20T08:36:03.982Z,24.98
2023-05-20T08:39:31.798Z,25.03
2023-05-20T08:42:13.596Z,25.09
2023-05-20T08:45:34.759Z,25.13
2023-05-20T08:48:54.721Z,25.16
2023-05-20T08:52:11.245Z,25.21
2023-05-20T08:55:14.834Z,25.25
2023-05-20T08:58:21.178Z,25.24
2023-05-20T09:01:44.982Z,25.24
2023-05-20T09:05:08.137Z,25.30
2023-05-20T09:08:22.169Z,25.35
2023-05-20T09:11:32.266Z,25.36
2023-05-20T09:14:54.213Z,25.39
2023-05-20T09:18:00.324Z,25.45
2023-05-20T09:21:11.695Z,25.51
2023-05-20T09:24:39.354Z,25.59
2023-05-20T09:27:38.246Z,25.62
2023-05-20T09:31:05.000Z,25.65
2023-05-20T09:34:33.797Z,25.74
2023-05-20T09:37:51.641Z,25.85
2023-05-20T09:45:05.639Z,26.01
2023-05-20T09:48:34.076Z,26.10
2023-05-20T09:51:41.250Z,26.18
2023-05-20T09:54:29.027Z,26.25
2023-05-20T09:57:27.651Z,26.28
2023-05-20T10:00:30.850Z,26.28
2023-05-20T10:03:57.517Z,26.32
2023-05-20T10:07:40.736Z,26.32
2023-05-20T10:11:13.085Z,26.28
2023-05-20T10:14:29.886Z,26.38
2023-05-20T10:17:50.644Z,26.49
2023-05-20T10:21:27.576Z,26.55
2023-05-20T10:24:55.425Z,26.63
2023-05-20T10:28:23.127Z,26.71
2023-05-20T10:31:36.976Z,26.83
2023-05-20T10:35:03.836Z,26.96
2023-05-20T10:38:11.511Z,27.08
2023-05-20T10:41:19.680Z,27.23
2023-05-20T10:44:47.404Z,27.36
2023-05-20T10:48:10.133Z,27.46
2023-05-20T10:51:37.638Z,27.53
2023-05-20T10:55:05.274Z,27.61
2023-05-20T10:58:32.747Z,27.68
2023-05-20T11:01:57.772Z,27.79
2023-05-20T11:05:08.774Z,27.94
2023-05-20T11:08:42.569Z,28.09
2023-05-20T11:12:10.237Z,28.29
2023-05-20T11:15:37.917Z,28.47
2023-05-20T11:19:05.625Z,28.65
2023-05-20T11:21:55.479Z,28.75
2023-05-20T11:25:03.137Z,28.89
2023-05-20T11:28:32.147Z,29.10
2023-05-20T11:31:47.110Z,29.25
2023-05-20T11:35:17.489Z,29.44
2023-05-20T11:38:45.204Z,29.70
2023-05-20T11:42:13.522Z,29.99
2023-05-20T11:45:31.217Z,30.26
2023-05-20T11:48:49.970Z,30.50
2023-05-20T11:52:07.762Z,30.68
2023-05-20T11:55:32.074Z,30.84
2023-05-20T11:59:06.047Z,30.97
2023-05-20T12:02:26.911Z,31.12
2023-05-20T12:06:53.565Z,31.24
2023-05-20T12:09:20.056Z,31.38
2023-05-20T12:12:42.520Z,31.45
2023-05-20T12:16:10.297Z,31.45
2023-05-20T12:19:29.149Z,31.62
2023-05-20T12:22:44.137Z,31.80
2023-05-20T12:26:11.796Z,32.05
2023-05-20T12:29:30.381Z,32.26
2023-05-20T12:32:31.901Z,32.40
2023-05-20T12:35:35.459Z,32.60
2023-05-20T12:39:07.062Z,32.79
2023-05-20T12:41:54.671Z,32.93
2023-05-20T12:45:00.945Z,32.99
2023-05-20T12:48:21.739Z,33.04
2023-05-20T12:51:29.683Z,33.27
2023-05-20T12:54:26.386Z,33.51
2023-05-20T12:57:45.460Z,33.62
2023-05-20T13:01:13.160Z,33.58
2023-05-20T13:04:39.563Z,33.76
2023-05-20T13:07:47.413Z,33.96
2023-05-20T13:10:45.047Z,34.12
2023-05-20T13:13:32.474Z,34.25
2023-05-20T13:17:01.423Z,34.47
2023-05-20T13:20:22.173Z,34.68
2023-05-20T13:23:37.231Z,34.88
2023-05-20T13:26:55.081Z,35.06
2023-05-20T13:30:12.802Z,35.19
2023-05-20T13:33:40.567Z,35.28
2023-05-20T13:36:48.124Z,35.29
2023-05-20T13:40:14.504Z,35.23
2023-05-20T13:43:35.161Z,35.05
2023-05-20T13:46:45.914Z,35.00
2023-05-20T13:50:03.528Z,35.10
2023-05-20T13:53:13.810Z,35.14
2023-05-20T13:56:10.488Z,35.14
2023-05-20T13:59:38.206Z,35.24
2023-05-20T14:02:54.793Z,35.27
2023-05-20T14:06:13.449Z,35.28
2023-05-20T14:09:23.669Z,35.30
2023-05-20T14:12:31.136Z,35.15
2023-05-20T14:15:38.838Z,35.05
2023-05-20T14:19:08.924Z,34.93
2023-05-20T14:22:26.647Z,34.80
2023-05-20T14:25:58.227Z,34.63
2023-05-20T14:28:47.144Z,34.48
2023-05-20T14:32:14.835Z,34.35
2023-05-20T14:35:22.030Z,34.12
2023-05-20T14:38:28.737Z,34.00
2023-05-20T14:41:28.917Z,33.91
2023-05-20T14:44:21.923Z,33.90
2023-05-20T14:47:22.347Z,33.89
2023-05-20T14:50:49.859Z,33.84
2023-05-20T14:54:17.834Z,33.85
2023-05-20T14:57:32.757Z,33.80
2023-05-20T15:00:40.549Z,33.71
2023-05-20T15:04:01.291Z,33.63
2023-05-20T15:07:11.778Z,33.60
2023-05-20T15:10:19.664Z,33.53
2023-05-20T15:13:46.333Z,33.40
2023-05-20T15:16:55.226Z,33.24
2023-05-20T15:20:03.212Z,32.97
2023-05-20T15:23:20.845Z,32.31
2023-05-20T15:26:26.470Z,31.42
2023-05-20T15:29:47.213Z,30.46
2023-05-20T15:33:07.606Z,29.53
2023-05-20T15:36:29.031Z,28.78
2023-05-20T15:39:37.010Z,28.15
2023-05-20T15:42:44.402Z,27.53
2023-05-20T15:45:52.090Z,27.14
2023-05-20T15:48:59.609Z,26.74
2023-05-20T15:52:27.248Z,26.38
2023-05-20T15:55:46.969Z,26.10
2023-05-20T15:59:15.087Z,25.79
2023-05-20T16:02:44.492Z,25.52
2023-05-20T16:06:02.117Z,25.31
2023-05-20T16:09:29.807Z,25.09
2023-05-20T16:12:55.133Z,24.83
2023-05-20T16:16:07.116Z,24.62
2023-05-20T16:19:31.542Z,24.48
2023-05-20T16:22:49.420Z,24.33
2023-05-20T16:26:17.094Z,24.19
2023-05-20T16:29:47.355Z,24.05
2023-05-20T16:33:14.969Z,23.91
2023-05-20T16:36:42.991Z,23.80
2023-05-20T16:40:09.771Z,23.71
2023-05-20T16:43:27.456Z,23.62
2023-05-20T16:46:34.132Z,23.53
2023-05-20T16:50:01.816Z,23.42
2023-05-20T16:53:29.538Z,23.32
2023-05-20T16:56:36.752Z,23.22
2023-05-20T16:59:41.076Z,23.14
2023-05-20T17:02:46.516Z,23.06
2023-05-20T17:05:59.872Z,22.95
2023-05-20T17:09:10.233Z,22.85
2023-05-20T17:12:26.671Z,22.76
2023-05-20T17:15:42.519Z,22.67
2023-05-20T17:19:10.223Z,22.58
2023-05-20T17:22:38.487Z,22.47
2023-05-20T17:25:49.347Z,22.37
2023-05-20T17:29:10.413Z,22.29
2023-05-20T17:32:28.171Z,22.22
2023-05-20T17:35:35.937Z,22.14
2023-05-20T17:39:03.743Z,22.06
2023-05-20T17:42:31.333Z,21.97
2023-05-20T17:45:59.019Z,21.88
2023-05-20T17:49:08.539Z,21.81
2023-05-20T17:52:35.650Z,21.72
2023-05-20T17:55:47.988Z,21.63
2023-05-20T17:59:16.675Z,21.52
2023-05-20T18:02:44.458Z,21.39
2023-05-20T18:06:12.149Z,21.26
2023-05-20T18:09:39.853Z,21.14
2023-05-20T18:13:07.855Z,21.01
2023-05-20T18:16:35.746Z,20.88
2023-05-20T18:20:02.285Z,20.76
2023-05-20T18:22:58.629Z,20.65
2023-05-20T18:26:04.836Z,20.57
2023-05-20T18:29:32.897Z,20.47
2023-05-20T18:32:59.699Z,20.37
2023-05-20T18:36:28.127Z,20.27
2023-05-20T18:39:55.868Z,20.20
2023-05-20T18:43:23.602Z,20.14
2023-05-20T18:46:51.837Z,20.10
2023-05-20T18:50:19.540Z,20.04
2023-05-20T18:53:47.244Z,19.96
2023-05-20T18:57:14.411Z,19.89
2023-05-20T19:00:42.012Z,19.83
2023-05-20T19:03:59.559Z,19.78
2023-05-20T19:07:26.559Z,19.71
2023-05-20T19:10:34.162Z,19.65
2023-05-20T19:13:35.002Z,19.61
2023-05-20T19:17:01.606Z,19.55
2023-05-20T19:20:19.217Z,19.51
2023-05-20T19:23:37.848Z,19.48
2023-05-20T19:27:05.574Z,19.43
2023-05-20T19:30:26.351Z,19.37
2023-05-20T19:33:30.764Z,19.31
2023-05-20T19:36:57.195Z,19.27
2023-05-20T19:39:54.421Z,19.21
2023-05-20T19:42:58.181Z,19.17
2023-05-20T19:46:18.432Z,19.12
2023-05-20T19:49:36.468Z,19.06
2023-05-20T19:53:04.165Z,19.01
2023-05-20T19:56:13.687Z,18.95
2023-05-20T19:59:41.508Z,18.90
2023-05-20T20:02:52.086Z,18.85
2023-05-20T20:06:19.779Z,18.79
2023-05-20T20:09:47.995Z,18.73
2023-05-20T20:12:38.398Z,18.65
2023-05-20T20:15:30.972Z,18.60
2023-05-20T20:18:58.579Z,18.53
2023-05-20T20:21:59.917Z,18.47
2023-05-20T20:24:56.234Z,18.40
2023-05-20T20:28:23.796Z,18.33
2023-05-20T20:31:31.950Z,18.25
2023-05-20T20:34:42.263Z,18.20
2023-05-20T20:37:52.630Z,18.18
2023-05-20T20:41:18.235Z,18.16
2023-05-20T20:44:45.846Z,18.12
2023-05-20T20:47:32.199Z,18.04
2023-05-20T20:51:06.977Z,18.01
2023-05-20T20:54:32.959Z,17.95
2023-05-20T20:58:00.524Z,17.89
2023-05-20T21:01:28.147Z,17.84
2023-05-20T21:04:31.589Z,17.79
2023-05-20T21:07:53.825Z,17.74
2023-05-20T21:11:21.515Z,17.71
2023-05-20T21:14:37.943Z,17.66
2023-05-20T21:17:54.649Z,17.59
2023-05-20T21:21:10.924Z,17.52
2023-05-20T21:24:38.510Z,17.47
2023-05-20T21:28:05.854Z,17.42
2023-05-20T21:31:13.991Z,17.32
2023-05-20T21:34:41.809Z,17.22
2023-05-20T21:37:32.596Z,17.13
2023-05-20T21:41:00.321Z,17.05
2023-05-20T21:44:27.037Z,16.94
2023-05-20T21:47:53.586Z,16.83
2023-05-20T21:51:20.344Z,16.73
2023-05-20T21:54:30.796Z,16.66
2023-05-20T21:57:59.496Z,16.60
2023-05-20T22:01:27.141Z,16.53
2023-05-20T22:04:54.784Z,16.47
2023-05-20T22:08:14.636Z,16.41
2023-05-20T22:11:42.342Z,16.35
2023-05-20T22:15:09.957Z,16.28
2023-05-20T22:18:37.649Z,16.23
2023-05-20T22:22:03.915Z,16.19
2023-05-20T22:25:36.750Z,16.16
2023-05-20T22:28:30.265Z,16.09
2023-05-20T22:31:02.571Z,16.03
2023-05-20T22:33:36.326Z,15.98
2023-05-20T22:36:16.372Z,15.94
2023-05-20T22:39:07.200Z,15.90
2023-05-20T22:41:37.297Z,15.86
2023-05-20T22:44:04.416Z,15.82
2023-05-20T22:46:32.424Z,15.79
2023-05-20T22:49:01.984Z,15.77
2023-05-20T22:51:35.579Z,15.74
2023-05-20T22:54:26.910Z,15.71
2023-05-20T22:57:15.195Z,15.66
2023-05-20T22:59:43.436Z,15.63
2023-05-20T23:02:25.014Z,15.58
2023-05-20T23:05:09.000Z,15.53
2023-05-20T23:08:19.358Z,15.48
2023-05-20T23:11:39.977Z,15.41
2023-05-20T23:15:01.070Z,15.34
2023-05-20T23:18:28.667Z,15.28
2023-05-20T23:21:34.835Z,15.24
2023-05-20T23:25:02.492Z,15.20
2023-05-20T23:28:30.144Z,15.16
2023-05-20T23:31:57.739Z,15.12
2023-05-20T23:35:25.351Z,15.08
2023-05-20T23:38:52.901Z,15.00
2023-05-20T23:42:19.634Z,14.94
2023-05-20T23:45:34.699Z,14.90
2023-05-20T23:49:02.419Z,14.85
2023-05-20T23:52:23.578Z,14.79
2023-05-20T23:55:36.058Z,14.70
2023-05-20T23:58:58.541Z,14.64
